Youngstown, Ohio
Current Conditions -  °F | °C
As of 4:51 PM on Friday 24 Oct 2014 (Local Time) from KYNG Reporting Station
Few Clouds Few Clouds  
Wind Chill: 16°   Ceiling: Unl
Heat Index: 16°   Visibility: 10mi
Dew Point:   Wind: 5mph
Humidity: 41%   Direction: 260°W
Pressure: 29.98"   Gusts: NA
Location:  41.1°N, 80.65°W
Report Text: KYNG 242051Z 26004KT 10SM FEW250 16/03 A2998 RMK AO2 SLP157 T01610028 56018 $
Loading
Personal Weather Stations






























Interactive Weather Map New forecast layout! Learn more

10-Day Weather Forecast

Advertisements
Track Severe Weather on mobile